Terminal Aerodrome Forecast
Issued by NWS Tallahassee, FL

Home | Current Version | Previous Version | Text Only | Print | Product List | Glossary On
Versions: 1 2 3 4 5 6 7 8 9 10 11 12 13 14 15 16 17
000
FTUS42 KTAE 042336
TAFTLH
TAF
KTLH 042336Z 0500/0524 00000KT P6SM SCT100 BKN250
     FM051500 24005KT P6SM VCTS SCT030CB
      TEMPO 0515/0519 P6SM TS BKN050CB
     FM051900 VRB05KT P6SM VCTS BKN050CB OVC250=

USA.gov is the U.S. government's official web portal to all federal, state and local government web resources and services.